sensor_id;sensor_type;location;lat;lon;timestamp;pressure;altitude;pressure_sealevel;temperature;humidity
61676;BME280;47574;52.090;5.244;2022-08-19T00:01:22;101346.0;;;24.58;57.52
61676;BME280;47574;52.090;5.244;2022-08-19T00:04:36;101344.0;;;24.54;57.23
61676;BME280;47574;52.090;5.244;2022-08-19T00:06:13;101339.0;;;24.55;57.01
61676;BME280;47574;52.090;5.244;2022-08-19T00:07:49;101335.0;;;24.38;57.61
61676;BME280;47574;52.090;5.244;2022-08-19T00:11:04;101338.0;;;24.35;57.8
61676;BME280;47574;52.090;5.244;2022-08-19T00:12:41;101338.0;;;24.26;57.79
61676;BME280;47574;52.090;5.244;2022-08-19T00:14:18;101341.0;;;24.17;58.27
61676;BME280;47574;52.090;5.244;2022-08-19T00:15:55;101346.0;;;24.19;58.23
61676;BME280;47574;52.090;5.244;2022-08-19T00:19:08;101342.0;;;24.15;58.12
61676;BME280;47574;52.090;5.244;2022-08-19T00:20:45;101348.0;;;24.31;57.68
61676;BME280;47574;52.090;5.244;2022-08-19T00:22:21;101351.0;;;24.43;57.49
61676;BME280;47574;52.090;5.244;2022-08-19T00:25:36;101349.0;;;24.36;57.28
61676;BME280;47574;52.090;5.244;2022-08-19T00:27:12;101349.0;;;24.46;57.41
61676;BME280;47574;52.090;5.244;2022-08-19T00:28:49;101349.0;;;24.51;57.65
61676;BME280;47574;52.090;5.244;2022-08-19T00:30:27;101345.0;;;24.52;57.67
61676;BME280;47574;52.090;5.244;2022-08-19T00:33:41;101342.0;;;24.66;57.44
61676;BME280;47574;52.090;5.244;2022-08-19T00:35:18;101341.0;;;24.66;57.28
61676;BME280;47574;52.090;5.244;2022-08-19T00:36:55;101341.0;;;24.62;57.27
61676;BME280;47574;52.090;5.244;2022-08-19T00:40:11;101340.0;;;24.6;57.26
61676;BME280;47574;52.090;5.244;2022-08-19T00:41:50;101337.0;;;24.38;57.49
61676;BME280;47574;52.090;5.244;2022-08-19T00:43:27;101337.0;;;24.36;57.38
61676;BME280;47574;52.090;5.244;2022-08-19T00:45:10;101334.0;;;24.32;57.02
61676;BME280;47574;52.090;5.244;2022-08-19T00:48:26;101333.0;;;24.25;56.89
61676;BME280;47574;52.090;5.244;2022-08-19T00:50:03;101336.0;;;24.07;57.25
61676;BME280;47574;52.090;5.244;2022-08-19T00:51:42;101338.0;;;23.83;58.05
61676;BME280;47574;52.090;5.244;2022-08-19T00:55:05;101343.0;;;23.94;57.41
61676;BME280;47574;52.090;5.244;2022-08-19T00:56:44;101343.0;;;23.82;57.79
61676;BME280;47574;52.090;5.244;2022-08-19T00:58:26;101340.0;;;23.8;57.56
61676;BME280;47574;52.090;5.244;2022-08-19T01:00:08;101339.0;;;23.74;58.1
61676;BME280;47574;52.090;5.244;2022-08-19T01:03:23;101339.0;;;23.92;57.3
61676;BME280;47574;52.090;5.244;2022-08-19T01:05:02;101338.0;;;23.78;57.54
61676;BME280;47574;52.090;5.244;2022-08-19T01:06:41;101340.0;;;23.67;57.89
61676;BME280;47574;52.090;5.244;2022-08-19T01:08:18;101341.0;;;23.61;57.94
61676;BME280;47574;52.090;5.244;2022-08-19T01:11:34;101343.0;;;23.54;58.12
61676;BME280;47574;52.090;5.244;2022-08-19T01:13:21;101338.0;;;23.55;58.22
61676;BME280;47574;52.090;5.244;2022-08-19T01:14:59;101331.0;;;23.59;58.16
61676;BME280;47574;52.090;5.244;2022-08-19T01:16:35;101331.0;;;23.71;57.57
61676;BME280;47574;52.090;5.244;2022-08-19T01:19:53;101330.0;;;23.66;57.5
61676;BME280;47574;52.090;5.244;2022-08-19T01:21:32;101330.0;;;23.83;56.93
61676;BME280;47574;52.090;5.244;2022-08-19T01:23:20;101326.0;;;23.69;57.23
61676;BME280;47574;52.090;5.244;2022-08-19T01:24:56;101327.0;;;23.63;57.61
61676;BME280;47574;52.090;5.244;2022-08-19T01:28:19;101326.0;;;23.7;57.47
61676;BME280;47574;52.090;5.244;2022-08-19T01:29:55;101330.0;;;23.71;57.32
61676;BME280;47574;52.090;5.244;2022-08-19T01:31:31;101332.0;;;23.6;57.46
61676;BME280;47574;52.090;5.244;2022-08-19T01:34:46;101341.0;;;23.58;57.59
61676;BME280;47574;52.090;5.244;2022-08-19T01:36:24;101337.0;;;23.56;57.71
61676;BME280;47574;52.090;5.244;2022-08-19T01:38:07;101347.0;;;23.53;57.74
61676;BME280;47574;52.090;5.244;2022-08-19T01:39:46;101355.0;;;23.6;57.41
61676;BME280;47574;52.090;5.244;2022-08-19T01:43:01;101356.0;;;23.65;57.2
61676;BME280;47574;52.090;5.244;2022-08-19T01:44:38;101359.0;;;23.52;57.39
61676;BME280;47574;52.090;5.244;2022-08-19T01:46:15;101356.0;;;23.54;57.43
61676;BME280;47574;52.090;5.244;2022-08-19T01:47:52;101355.0;;;23.62;57.75
61676;BME280;47574;52.090;5.244;2022-08-19T01:51:08;101345.0;;;23.81;57.03
61676;BME280;47574;52.090;5.244;2022-08-19T01:52:45;101345.0;;;23.72;56.7
61676;BME280;47574;52.090;5.244;2022-08-19T01:54:24;101341.0;;;23.65;56.97
61676;BME280;47574;52.090;5.244;2022-08-19T01:57:42;101347.0;;;23.65;57.2
61676;BME280;47574;52.090;5.244;2022-08-19T01:59:22;101350.0;;;23.72;57.17
61676;BME280;47574;52.090;5.244;2022-08-19T02:01:00;101349.0;;;23.71;57.24
61676;BME280;47574;52.090;5.244;2022-08-19T02:02:36;101352.0;;;23.85;57.58
61676;BME280;47574;52.090;5.244;2022-08-19T02:05:54;101350.0;;;23.92;57.57
61676;BME280;47574;52.090;5.244;2022-08-19T02:07:33;101348.0;;;23.95;56.97
61676;BME280;47574;52.090;5.244;2022-08-19T02:09:10;101345.0;;;23.8;57.31
61676;BME280;47574;52.090;5.244;2022-08-19T02:12:22;101348.0;;;23.85;57.08
61676;BME280;47574;52.090;5.244;2022-08-19T02:13:59;101353.0;;;24.01;57.31
61676;BME280;47574;52.090;5.244;2022-08-19T02:15:36;101351.0;;;24.05;57.29
61676;BME280;47574;52.090;5.244;2022-08-19T02:17:13;101350.0;;;23.9;57.7
61676;BME280;47574;52.090;5.244;2022-08-19T02:20:27;101348.0;;;24.03;57.9
61676;BME280;47574;52.090;5.244;2022-08-19T02:23:40;101342.0;;;24.0;58.24
61676;BME280;47574;52.090;5.244;2022-08-19T02:26:52;101342.0;;;23.94;58.16
61676;BME280;47574;52.090;5.244;2022-08-19T02:28:29;101345.0;;;23.95;58.13
61676;BME280;47574;52.090;5.244;2022-08-19T02:30:09;101347.0;;;23.93;58.14
61676;BME280;47574;52.090;5.244;2022-08-19T02:31:47;101350.0;;;23.91;58.32
61676;BME280;47574;52.090;5.244;2022-08-19T02:35:00;101349.0;;;24.01;58.2
61676;BME280;47574;52.090;5.244;2022-08-19T02:36:36;101353.0;;;24.03;58.52
61676;BME280;47574;52.090;5.244;2022-08-19T02:38:29;101357.0;;;24.04;58.08
61676;BME280;47574;52.090;5.244;2022-08-19T02:41:44;101359.0;;;24.04;58.11
61676;BME280;47574;52.090;5.244;2022-08-19T02:43:21;101361.0;;;24.04;58.24
61676;BME280;47574;52.090;5.244;2022-08-19T02:44:58;101366.0;;;24.02;58.13
61676;BME280;47574;52.090;5.244;2022-08-19T02:46:34;101362.0;;;24.04;58.15
61676;BME280;47574;52.090;5.244;2022-08-19T02:49:49;101364.0;;;24.03;58.03
61676;BME280;47574;52.090;5.244;2022-08-19T02:51:28;101360.0;;;23.95;57.76
61676;BME280;47574;52.090;5.244;2022-08-19T02:53:08;101356.0;;;24.01;57.82
61676;BME280;47574;52.090;5.244;2022-08-19T02:56:23;101355.0;;;23.73;57.66
61676;BME280;47574;52.090;5.244;2022-08-19T02:58:00;101353.0;;;23.48;57.51
61676;BME280;47574;52.090;5.244;2022-08-19T02:59:36;101351.0;;;23.4;57.54
61676;BME280;47574;52.090;5.244;2022-08-19T03:01:20;101349.0;;;23.28;57.57
61676;BME280;47574;52.090;5.244;2022-08-19T03:04:33;101348.0;;;23.11;58.24
61676;BME280;47574;52.090;5.244;2022-08-19T03:06:12;101352.0;;;23.42;57.59
61676;BME280;47574;52.090;5.244;2022-08-19T03:07:49;101355.0;;;23.45;57.27
61676;BME280;47574;52.090;5.244;2022-08-19T03:09:26;101352.0;;;23.6;57.37
61676;BME280;47574;52.090;5.244;2022-08-19T03:12:40;101351.0;;;23.54;57.33
61676;BME280;47574;52.090;5.244;2022-08-19T03:14:18;101348.0;;;23.54;57.72
61676;BME280;47574;52.090;5.244;2022-08-19T03:15:54;101338.0;;;23.38;57.91
61676;BME280;47574;52.090;5.244;2022-08-19T03:19:06;101340.0;;;23.49;58.07
61676;BME280;47574;52.090;5.244;2022-08-19T03:20:44;101338.0;;;23.61;57.55
61676;BME280;47574;52.090;5.244;2022-08-19T03:22:22;101341.0;;;23.51;57.03
61676;BME280;47574;52.090;5.244;2022-08-19T03:25:45;101340.0;;;23.35;57.22
61676;BME280;47574;52.090;5.244;2022-08-19T03:27:24;101340.0;;;23.15;57.77
61676;BME280;47574;52.090;5.244;2022-08-19T03:29:02;101341.0;;;23.07;57.78
61676;BME280;47574;52.090;5.244;2022-08-19T03:30:42;101344.0;;;23.09;57.76
61676;BME280;47574;52.090;5.244;2022-08-19T03:33:55;101346.0;;;23.07;57.4
61676;BME280;47574;52.090;5.244;2022-08-19T03:35:31;101340.0;;;23.0;57.8
61676;BME280;47574;52.090;5.244;2022-08-19T03:37:09;101337.0;;;23.13;56.95
61676;BME280;47574;52.090;5.244;2022-08-19T03:38:51;101338.0;;;23.0;57.52
61676;BME280;47574;52.090;5.244;2022-08-19T03:42:07;101345.0;;;22.94;57.21
61676;BME280;47574;52.090;5.244;2022-08-19T03:43:47;101343.0;;;22.74;57.63
61676;BME280;47574;52.090;5.244;2022-08-19T03:45:23;101345.0;;;22.66;57.73
61676;BME280;47574;52.090;5.244;2022-08-19T03:48:38;101346.0;;;22.59;58.0
61676;BME280;47574;52.090;5.244;2022-08-19T03:50:15;101340.0;;;22.78;57.94
61676;BME280;47574;52.090;5.244;2022-08-19T03:51:53;101337.0;;;23.1;57.4
61676;BME280;47574;52.090;5.244;2022-08-19T03:53:31;101336.0;;;23.1;57.86
61676;BME280;47574;52.090;5.244;2022-08-19T03:56:48;101341.0;;;23.17;57.4
61676;BME280;47574;52.090;5.244;2022-08-19T03:58:26;101336.0;;;23.28;57.36
61676;BME280;47574;52.090;5.244;2022-08-19T04:00:05;101333.0;;;23.14;57.6
61676;BME280;47574;52.090;5.244;2022-08-19T04:03:19;101332.0;;;23.15;57.23
61676;BME280;47574;52.090;5.244;2022-08-19T04:04:55;101340.0;;;23.34;57.26
61676;BME280;47574;52.090;5.244;2022-08-19T04:06:33;101342.0;;;23.15;57.13
61676;BME280;47574;52.090;5.244;2022-08-19T04:08:11;101348.0;;;23.17;57.12
61676;BME280;47574;52.090;5.244;2022-08-19T04:11:26;101347.0;;;23.07;57.44
61676;BME280;47574;52.090;5.244;2022-08-19T04:13:04;101342.0;;;23.03;57.65
61676;BME280;47574;52.090;5.244;2022-08-19T04:14:41;101340.0;;;23.06;57.43
61676;BME280;47574;52.090;5.244;2022-08-19T04:17:56;101340.0;;;23.18;57.06
61676;BME280;47574;52.090;5.244;2022-08-19T04:19:34;101339.0;;;23.2;57.1
61676;BME280;47574;52.090;5.244;2022-08-19T04:21:16;101339.0;;;23.21;57.17
61676;BME280;47574;52.090;5.244;2022-08-19T04:22:53;101344.0;;;23.33;57.09
61676;BME280;47574;52.090;5.244;2022-08-19T04:26:06;101342.0;;;23.32;57.11
61676;BME280;47574;52.090;5.244;2022-08-19T04:27:46;101341.0;;;23.27;57.18
61676;BME280;47574;52.090;5.244;2022-08-19T04:29:25;101337.0;;;23.33;57.21
61676;BME280;47574;52.090;5.244;2022-08-19T04:31:01;101333.0;;;23.27;57.25
61676;BME280;47574;52.090;5.244;2022-08-19T04:34:18;101331.0;;;23.27;57.37
61676;BME280;47574;52.090;5.244;2022-08-19T04:35:58;101326.0;;;23.05;57.41
61676;BME280;47574;52.090;5.244;2022-08-19T04:37:34;101325.0;;;22.86;57.57
61676;BME280;47574;52.090;5.244;2022-08-19T04:43:48;101321.0;;;23.03;57.02
61676;BME280;47574;52.090;5.244;2022-08-19T04:47:00;101323.0;;;23.16;56.81
61676;BME280;47574;52.090;5.244;2022-08-19T04:48:38;101324.0;;;23.02;57.29
61676;BME280;47574;52.090;5.244;2022-08-19T04:50:15;101325.0;;;23.08;56.93
61676;BME280;47574;52.090;5.244;2022-08-19T04:53:32;101332.0;;;23.12;57.24
61676;BME280;47574;52.090;5.244;2022-08-19T04:55:10;101334.0;;;23.22;57.3
61676;BME280;47574;52.090;5.244;2022-08-19T04:56:50;101330.0;;;23.06;57.55
61676;BME280;47574;52.090;5.244;2022-08-19T04:58:28;101338.0;;;23.17;57.27
61676;BME280;47574;52.090;5.244;2022-08-19T05:01:43;101346.0;;;23.17;57.45
61676;BME280;47574;52.090;5.244;2022-08-19T05:03:19;101353.0;;;23.23;57.4
61676;BME280;47574;52.090;5.244;2022-08-19T05:04:57;101355.0;;;23.21;57.51
61676;BME280;47574;52.090;5.244;2022-08-19T05:08:13;101356.0;;;23.16;57.44
61676;BME280;47574;52.090;5.244;2022-08-19T05:09:50;101359.0;;;23.25;57.49
61676;BME280;47574;52.090;5.244;2022-08-19T05:11:28;101359.0;;;23.26;57.57
61676;BME280;47574;52.090;5.244;2022-08-19T05:13:09;101362.0;;;23.36;57.41
61676;BME280;47574;52.090;5.244;2022-08-19T05:16:26;101364.0;;;23.37;57.43
61676;BME280;47574;52.090;5.244;2022-08-19T05:24:29;101364.0;;;23.2;57.93
61676;BME280;47574;52.090;5.244;2022-08-19T05:26:06;101366.0;;;23.17;58.36
61676;BME280;47574;52.090;5.244;2022-08-19T05:27:42;101367.0;;;23.2;58.54
61676;BME280;47574;52.090;5.244;2022-08-19T05:30:57;101371.0;;;23.19;58.61
61676;BME280;47574;52.090;5.244;2022-08-19T05:32:34;101371.0;;;23.14;59.02
61676;BME280;47574;52.090;5.244;2022-08-19T05:34:11;101367.0;;;23.33;58.52
61676;BME280;47574;52.090;5.244;2022-08-19T05:37:27;101366.0;;;23.36;58.84
61676;BME280;47574;52.090;5.244;2022-08-19T05:39:04;101362.0;;;23.39;59.24
61676;BME280;47574;52.090;5.244;2022-08-19T05:40:42;101364.0;;;23.16;59.85
61676;BME280;47574;52.090;5.244;2022-08-19T05:42:20;101362.0;;;23.05;60.31
61676;BME280;47574;52.090;5.244;2022-08-19T05:45:38;101359.0;;;23.07;60.4
61676;BME280;47574;52.090;5.244;2022-08-19T05:47:16;101356.0;;;23.17;60.36
61676;BME280;47574;52.090;5.244;2022-08-19T05:48:53;101358.0;;;23.19;60.19
61676;BME280;47574;52.090;5.244;2022-08-19T05:52:09;101365.0;;;23.05;60.79
61676;BME280;47574;52.090;5.244;2022-08-19T05:53:47;101365.0;;;23.37;60.19
61676;BME280;47574;52.090;5.244;2022-08-19T05:55:23;101358.0;;;23.54;59.8
61676;BME280;47574;52.090;5.244;2022-08-19T05:57:01;101360.0;;;23.25;60.44
61676;BME280;47574;52.090;5.244;2022-08-19T06:00:15;101357.0;;;23.21;60.63
61676;BME280;47574;52.090;5.244;2022-08-19T06:01:54;101355.0;;;22.87;61.82
61676;BME280;47574;52.090;5.244;2022-08-19T06:03:32;101355.0;;;23.25;60.89
61676;BME280;47574;52.090;5.244;2022-08-19T06:06:47;101353.0;;;23.1;61.28
61676;BME280;47574;52.090;5.244;2022-08-19T06:08:25;101355.0;;;23.42;60.66
61676;BME280;47574;52.090;5.244;2022-08-19T06:10:02;101359.0;;;23.16;61.41
61676;BME280;47574;52.090;5.244;2022-08-19T06:11:43;101357.0;;;23.53;60.64
61676;BME280;47574;52.090;5.244;2022-08-19T06:14:57;101358.0;;;23.48;60.64
61676;BME280;47574;52.090;5.244;2022-08-19T06:16:37;101359.0;;;23.44;60.94
61676;BME280;47574;52.090;5.244;2022-08-19T06:18:14;101363.0;;;23.33;61.43
61676;BME280;47574;52.090;5.244;2022-08-19T06:19:52;101364.0;;;23.43;61.25
61676;BME280;47574;52.090;5.244;2022-08-19T06:23:06;101365.0;;;23.46;61.4
61676;BME280;47574;52.090;5.244;2022-08-19T06:24:43;101358.0;;;23.75;60.61
61676;BME280;47574;52.090;5.244;2022-08-19T06:26:20;101365.0;;;23.54;61.3
61676;BME280;47574;52.090;5.244;2022-08-19T06:29:35;101365.0;;;23.44;61.77
61676;BME280;47574;52.090;5.244;2022-08-19T06:31:14;101362.0;;;23.55;61.52
61676;BME280;47574;52.090;5.244;2022-08-19T06:32:52;101352.0;;;23.7;61.58
61676;BME280;47574;52.090;5.244;2022-08-19T06:34:32;101357.0;;;23.96;60.83
61676;BME280;47574;52.090;5.244;2022-08-19T06:37:53;101353.0;;;23.79;61.38
61676;BME280;47574;52.090;5.244;2022-08-19T06:39:32;101363.0;;;23.91;61.41
61676;BME280;47574;52.090;5.244;2022-08-19T06:41:14;101361.0;;;23.73;61.95
61676;BME280;47574;52.090;5.244;2022-08-19T06:42:50;101366.0;;;23.59;62.2
61676;BME280;47574;52.090;5.244;2022-08-19T06:46:11;101364.0;;;23.92;61.52
61676;BME280;47574;52.090;5.244;2022-08-19T06:47:48;101366.0;;;23.67;61.95
61676;BME280;47574;52.090;5.244;2022-08-19T06:49:31;101364.0;;;23.8;61.63
61676;BME280;47574;52.090;5.244;2022-08-19T06:52:44;101369.0;;;24.18;60.77
61676;BME280;47574;52.090;5.244;2022-08-19T06:54:20;101361.0;;;23.8;61.56
61676;BME280;47574;52.090;5.244;2022-08-19T06:56:00;101363.0;;;24.18;60.72
61676;BME280;47574;52.090;5.244;2022-08-19T06:57:36;101364.0;;;24.18;60.61
61676;BME280;47574;52.090;5.244;2022-08-19T07:01:02;101361.0;;;23.77;61.35
61676;BME280;47574;52.090;5.244;2022-08-19T07:02:40;101364.0;;;23.91;61.25
61676;BME280;47574;52.090;5.244;2022-08-19T07:05:56;101366.0;;;23.91;61.09
61676;BME280;47574;52.090;5.244;2022-08-19T07:09:13;101367.0;;;23.83;61.36
61676;BME280;47574;52.090;5.244;2022-08-19T07:10:53;101368.0;;;23.78;61.63
61676;BME280;47574;52.090;5.244;2022-08-19T07:12:30;101368.0;;;23.86;61.39
61676;BME280;47574;52.090;5.244;2022-08-19T07:15:46;101367.0;;;23.83;61.17
61676;BME280;47574;52.090;5.244;2022-08-19T07:17:22;101374.0;;;23.65;61.78
61676;BME280;47574;52.090;5.244;2022-08-19T07:18:59;101370.0;;;23.88;61.24
61676;BME280;47574;52.090;5.244;2022-08-19T07:20:36;101376.0;;;24.1;60.46
61676;BME280;47574;52.090;5.244;2022-08-19T07:23:52;101381.0;;;24.25;60.38
61676;BME280;47574;52.090;5.244;2022-08-19T07:25:28;101380.0;;;24.17;60.21
61676;BME280;47574;52.090;5.244;2022-08-19T07:27:06;101385.0;;;24.27;60.11
61676;BME280;47574;52.090;5.244;2022-08-19T07:30:23;101385.0;;;24.51;59.75
61676;BME280;47574;52.090;5.244;2022-08-19T07:32:00;101389.0;;;24.53;59.66
61676;BME280;47574;52.090;5.244;2022-08-19T07:33:37;101386.0;;;24.53;59.09
61676;BME280;47574;52.090;5.244;2022-08-19T07:35:14;101382.0;;;24.46;59.33
61676;BME280;47574;52.090;5.244;2022-08-19T07:38:28;101384.0;;;24.41;59.11
61676;BME280;47574;52.090;5.244;2022-08-19T07:40:06;101382.0;;;24.37;59.33
61676;BME280;47574;52.090;5.244;2022-08-19T07:41:43;101377.0;;;24.19;59.56
61676;BME280;47574;52.090;5.244;2022-08-19T07:45:05;101381.0;;;24.39;59.33
61676;BME280;47574;52.090;5.244;2022-08-19T07:46:52;101382.0;;;24.63;58.86
61676;BME280;47574;52.090;5.244;2022-08-19T07:48:29;101387.0;;;24.02;59.65
61676;BME280;47574;52.090;5.244;2022-08-19T07:50:08;101392.0;;;24.42;58.86
61676;BME280;47574;52.090;5.244;2022-08-19T07:53:25;101397.0;;;24.38;59.24
61676;BME280;47574;52.090;5.244;2022-08-19T07:55:04;101400.0;;;24.5;58.62
61676;BME280;47574;52.090;5.244;2022-08-19T07:56:42;101400.0;;;24.8;58.27
61676;BME280;47574;52.090;5.244;2022-08-19T07:58:21;101398.0;;;24.63;58.24
61676;BME280;47574;52.090;5.244;2022-08-19T08:01:35;101398.0;;;24.68;58.21
61676;BME280;47574;52.090;5.244;2022-08-19T08:03:13;101401.0;;;24.75;58.08
61676;BME280;47574;52.090;5.244;2022-08-19T08:09:31;101405.0;;;24.52;58.37
61676;BME280;47574;52.090;5.244;2022-08-19T08:11:08;101405.0;;;24.78;57.6
61676;BME280;47574;52.090;5.244;2022-08-19T08:14:24;101409.0;;;24.93;57.78
61676;BME280;47574;52.090;5.244;2022-08-19T08:16:04;101415.0;;;25.08;56.97
61676;BME280;47574;52.090;5.244;2022-08-19T08:17:40;101419.0;;;25.08;56.94
61676;BME280;47574;52.090;5.244;2022-08-19T08:19:19;101420.0;;;25.06;57.05
61676;BME280;47574;52.090;5.244;2022-08-19T08:23:38;101425.0;;;25.57;55.81
61676;BME280;47574;52.090;5.244;2022-08-19T08:25:16;101427.0;;;25.43;55.53
61676;BME280;47574;52.090;5.244;2022-08-19T08:26:56;101422.0;;;25.44;55.33
61676;BME280;47574;52.090;5.244;2022-08-19T08:28:35;101420.0;;;25.72;55.07
61676;BME280;47574;52.090;5.244;2022-08-19T08:30:15;101422.0;;;25.57;55.61
61676;BME280;47574;52.090;5.244;2022-08-19T08:31:53;101426.0;;;25.72;54.82
61676;BME280;47574;52.090;5.244;2022-08-19T08:35:10;101427.0;;;25.62;55.77
61676;BME280;47574;52.090;5.244;2022-08-19T08:36:48;101428.0;;;25.66;55.61
61676;BME280;47574;52.090;5.244;2022-08-19T08:38:25;101432.0;;;25.89;54.73
61676;BME280;47574;52.090;5.244;2022-08-19T08:40:03;101431.0;;;25.88;54.73
61676;BME280;47574;52.090;5.244;2022-08-19T08:43:35;101427.0;;;25.73;55.04
61676;BME280;47574;52.090;5.244;2022-08-19T08:45:17;101424.0;;;25.59;55.13
61676;BME280;47574;52.090;5.244;2022-08-19T08:46:57;101422.0;;;25.67;55.34
61676;BME280;47574;52.090;5.244;2022-08-19T08:48:40;101423.0;;;25.97;54.76
61676;BME280;47574;52.090;5.244;2022-08-19T08:52:06;101423.0;;;25.68;55.21
61676;BME280;47574;52.090;5.244;2022-08-19T08:53:49;101422.0;;;25.94;54.53
61676;BME280;47574;52.090;5.244;2022-08-19T08:55:28;101424.0;;;25.8;54.77
61676;BME280;47574;52.090;5.244;2022-08-19T08:57:11;101426.0;;;25.88;54.42
61676;BME280;47574;52.090;5.244;2022-08-19T08:58:58;101426.0;;;26.18;53.67
61676;BME280;47574;52.090;5.244;2022-08-19T09:02:20;101425.0;;;26.0;54.67
61676;BME280;47574;52.090;5.244;2022-08-19T09:03:56;101423.0;;;26.19;53.74
61676;BME280;47574;52.090;5.244;2022-08-19T09:05:47;101424.0;;;26.34;53.31
61676;BME280;47574;52.090;5.244;2022-08-19T09:07:37;101425.0;;;26.48;53.26
61676;BME280;47574;52.090;5.244;2022-08-19T09:09:34;101424.0;;;26.52;53.12
61676;BME280;47574;52.090;5.244;2022-08-19T09:13:14;101426.0;;;26.65;52.4
61676;BME280;47574;52.090;5.244;2022-08-19T09:15:04;101428.0;;;26.63;52.16
61676;BME280;47574;52.090;5.244;2022-08-19T09:16:41;101436.0;;;26.45;52.22
61676;BME280;47574;52.090;5.244;2022-08-19T09:18:18;101434.0;;;26.21;52.73
61676;BME280;47574;52.090;5.244;2022-08-19T09:19:58;101433.0;;;26.69;52.12
61676;BME280;47574;52.090;5.244;2022-08-19T09:23:11;101432.0;;;26.53;52.63
61676;BME280;47574;52.090;5.244;2022-08-19T09:24:48;101434.0;;;26.22;52.93
61676;BME280;47574;52.090;5.244;2022-08-19T09:26:25;101433.0;;;26.33;52.2
61676;BME280;47574;52.090;5.244;2022-08-19T09:29:39;101433.0;;;26.65;51.87
61676;BME280;47574;52.090;5.244;2022-08-19T09:31:18;101433.0;;;26.58;52.26
61676;BME280;47574;52.090;5.244;2022-08-19T09:33:00;101430.0;;;26.86;51.56
61676;BME280;47574;52.090;5.244;2022-08-19T09:34:37;101436.0;;;27.0;51.42
61676;BME280;47574;52.090;5.244;2022-08-19T09:37:54;101440.0;;;26.65;51.07
61676;BME280;47574;52.090;5.244;2022-08-19T09:39:31;101441.0;;;26.81;50.45
61676;BME280;47574;52.090;5.244;2022-08-19T09:41:09;101445.0;;;27.07;50.55
61676;BME280;47574;52.090;5.244;2022-08-19T09:42:48;101448.0;;;26.87;50.32
61676;BME280;47574;52.090;5.244;2022-08-19T09:46:01;101443.0;;;26.68;50.75
61676;BME280;47574;52.090;5.244;2022-08-19T09:47:38;101448.0;;;26.87;51.04
61676;BME280;47574;52.090;5.244;2022-08-19T09:49:15;101445.0;;;26.79;51.31
61676;BME280;47574;52.090;5.244;2022-08-19T09:52:28;101443.0;;;26.95;51.23
61676;BME280;47574;52.090;5.244;2022-08-19T09:54:04;101443.0;;;27.03;51.22
61676;BME280;47574;52.090;5.244;2022-08-19T09:55:41;101445.0;;;27.01;51.49
61676;BME280;47574;52.090;5.244;2022-08-19T09:58:54;101450.0;;;27.19;51.38
61676;BME280;47574;52.090;5.244;2022-08-19T10:00:32;101444.0;;;27.18;51.1
61676;BME280;47574;52.090;5.244;2022-08-19T10:02:09;101446.0;;;27.11;51.49
61676;BME280;47574;52.090;5.244;2022-08-19T10:03:48;101448.0;;;27.16;52.09
61676;BME280;47574;52.090;5.244;2022-08-19T10:07:35;101446.0;;;26.77;52.38
61676;BME280;47574;52.090;5.244;2022-08-19T10:09:14;101442.0;;;26.68;52.48
61676;BME280;47574;52.090;5.244;2022-08-19T10:10:51;101440.0;;;26.79;52.44
61676;BME280;47574;52.090;5.244;2022-08-19T10:12:28;101439.0;;;27.14;52.06
61676;BME280;47574;52.090;5.244;2022-08-19T10:15:43;101442.0;;;26.65;52.72
61676;BME280;47574;52.090;5.244;2022-08-19T10:17:20;101437.0;;;26.99;52.23
61676;BME280;47574;52.090;5.244;2022-08-19T10:18:57;101437.0;;;26.81;52.54
61676;BME280;47574;52.090;5.244;2022-08-19T10:20:35;101434.0;;;26.71;52.94
61676;BME280;47574;52.090;5.244;2022-08-19T10:23:53;101433.0;;;26.95;52.59
61676;BME280;47574;52.090;5.244;2022-08-19T10:25:32;101434.0;;;27.28;52.2
61676;BME280;47574;52.090;5.244;2022-08-19T10:27:09;101433.0;;;26.95;53.0
61676;BME280;47574;52.090;5.244;2022-08-19T10:28:46;101438.0;;;27.14;52.96
61676;BME280;47574;52.090;5.244;2022-08-19T10:32:00;101437.0;;;27.35;52.72
61676;BME280;47574;52.090;5.244;2022-08-19T10:33:38;101440.0;;;27.52;52.23
61676;BME280;47574;52.090;5.244;2022-08-19T10:35:15;101433.0;;;27.59;52.5
61676;BME280;47574;52.090;5.244;2022-08-19T10:38:28;101432.0;;;27.42;52.84
61676;BME280;47574;52.090;5.244;2022-08-19T10:40:07;101436.0;;;27.39;52.9
61676;BME280;47574;52.090;5.244;2022-08-19T10:41:44;101434.0;;;27.75;52.54
61676;BME280;47574;52.090;5.244;2022-08-19T10:44:57;101433.0;;;27.9;52.12
61676;BME280;47574;52.090;5.244;2022-08-19T10:46:38;101430.0;;;27.9;51.87
61676;BME280;47574;52.090;5.244;2022-08-19T10:48:16;101430.0;;;28.1;51.4
61676;BME280;47574;52.090;5.244;2022-08-19T10:52:47;101422.0;;;27.94;51.54
61676;BME280;47574;52.090;5.244;2022-08-19T10:56:51;101421.0;;;28.24;51.31
61676;BME280;47574;52.090;5.244;2022-08-19T10:58:27;101425.0;;;28.35;51.13
61676;BME280;47574;52.090;5.244;2022-08-19T11:01:42;101424.0;;;28.52;50.79
61676;BME280;47574;52.090;5.244;2022-08-19T11:03:19;101420.0;;;28.31;51.14
61676;BME280;47574;52.090;5.244;2022-08-19T11:04:56;101423.0;;;28.37;51.01
61676;BME280;47574;52.090;5.244;2022-08-19T11:06:32;101421.0;;;28.59;50.42
61676;BME280;47574;52.090;5.244;2022-08-19T11:09:47;101421.0;;;28.55;50.56
61676;BME280;47574;52.090;5.244;2022-08-19T11:11:24;101422.0;;;28.24;51.36
61676;BME280;47574;52.090;5.244;2022-08-19T11:13:00;101421.0;;;28.33;50.63
61676;BME280;47574;52.090;5.244;2022-08-19T11:16:15;101422.0;;;28.73;50.79
61676;BME280;47574;52.090;5.244;2022-08-19T11:17:54;101418.0;;;28.63;49.96
61676;BME280;47574;52.090;5.244;2022-08-19T11:19:32;101416.0;;;28.91;50.04
61676;BME280;47574;52.090;5.244;2022-08-19T11:21:12;101408.0;;;28.46;50.68
61676;BME280;47574;52.090;5.244;2022-08-19T11:24:28;101410.0;;;28.86;50.11
61676;BME280;47574;52.090;5.244;2022-08-19T11:26:04;101406.0;;;28.84;49.58
61676;BME280;47574;52.090;5.244;2022-08-19T11:27:42;101406.0;;;28.86;49.23
61676;BME280;47574;52.090;5.244;2022-08-19T11:30:58;101400.0;;;28.89;49.59